Home > Products > Valid Products > TAF

000
FTUS42 KTAE 220800 AAA
TAFVLD
TAF AMD
KVLD 220827Z 2208/2306 08003KT 1SM -RA BR OVC002
     FM221400 09005KT 4SM -RA BR OVC005
     FM230000 14006KT 2SM -RA BR OVC002=



000
FTUS42 KTAE 220500
TAFTLH
TAF
KTLH 220532Z 2206/2306 09005KT 1SM -RA BR OVC002
     FM221400 10007KT 4SM -RA BR OVC005
     FM230000 14005KT 2SM -RA BR OVC002=



000
FTUS42 KTAE 220500
TAFABY
TAF
KABY 220532Z 2206/2306 06005KT 1SM -RA BR OVC002
     FM221400 08005KT P6SM OVC005
     FM221800 09007KT 4SM -RA BR OVC004
     FM230000 12005KT 2SM -RA BR OVC002=



000
FTUS42 KTAE 220500
TAFVLD
TAF
KVLD 220532Z 2206/2306 08003KT 2SM -RA BR OVC003
     FM221400 09005KT 4SM -RA BR OVC005
     FM230000 14006KT 2SM -RA BR OVC002=



000
FTUS42 KTAE 220500
TAFDHN
TAF
KDHN 220532Z 2206/2306 07005KT 1SM BR OVC002
     FM221400 09006KT P6SM OVC005
     FM221800 10007KT P6SM OVC012
     FM230000 14004KT 3SM BR OVC005=



000
FTUS42 KTAE 220100 AAA
TAFABY
TAF AMD
KABY 220107Z 2201/2224 07007KT 2SM -DZ BR OVC004
     FM221400 07005KT 4SM -DZ BR OVC006
     FM221800 08005KT 5SM -DZ BR OVC010=



000
FTUS42 KTAE 220100 AAA
TAFABY
TAF AMD
KABY 220107Z 2201/2224 07007KT 2SM -DZ BR OVC004
     FM221400 07005KT 4SM -DZ BR OVC006
     FM221800 08005KT 5SM -DZ BR OVC010=



000
FTUS42 KTAE 212300
TAFABY
TAF
KABY 212332Z 2200/2224 07007KT 4SM -DZ BR OVC006
     FM220600 07004KT 2SM -DZ BR OVC003
     FM221400 07005KT 4SM -DZ BR OVC006
     FM221800 08005KT 5SM -DZ BR OVC010=



000
FTUS42 KTAE 212300
TAFDHN
TAF
KDHN 212332Z 2200/2224 07005KT 3SM -DZ BR OVC003
     FM220600 08005KT 2SM -DZ BR OVC002
     FM221400 08006KT 5SM -DZ BR OVC004
     FM221800 10005KT P6SM OVC010=



000
FTUS42 KTAE 212300
TAFTLH
TAF
KTLH 212332Z 2200/2224 06004KT 5SM -RA BR OVC005
     FM220400 08003KT 3SM -RA BR OVC004
     FM220600 07004KT 1SM -RA BR OVC002
     FM221400 09004KT 3SM -DZ BR OVC005
     FM221800 12005KT P6SM OVC008=



000
FTUS42 KTAE 212300
TAFVLD
TAF
KVLD 212332Z 2200/2224 07005KT 5SM -RA BR OVC005
     FM220500 08003KT 1SM -RA BR OVC002
     FM221400 10005KT 4SM -RA BR OVC004=



000
FTUS42 KTAE 212100 AAA
TAFABY
TAF AMD
KABY 212111Z 2121/2218 07007KT 2SM BR VCSH OVC005
     FM220200 08005KT 2SM -RA BR OVC003
     FM221400 07005KT 6SM -RA BR OVC004=



000
FTUS42 KTAE 212100 AAA
TAFABY
TAF AMD
KABY 212111Z 2121/2218 07007KT 2SM BR VCSH OVC005
     FM220200 08005KT 2SM -RA BR OVC003
     FM221400 07005KT 6SM -RA BR OVC004=



000
FTUS42 KTAE 212100 AAA
TAFDHN
TAF AMD
KDHN 212110Z 2121/2218 06008KT 2SM BR OVC005
     FM220200 08005KT 6SM BR VCSH OVC007
     FM220700 09004KT 2SM BR VCSH OVC003
     FM221400 09006KT 6SM -RA BR OVC004=



000
FTUS42 KTAE 212100 AAA
TAFDHN
TAF AMD
KDHN 212110Z 2121/2218 06008KT 2SM BR OVC005
     FM220200 08005KT 6SM BR VCSH OVC007
     FM220700 09004KT 2SM BR VCSH OVC003
     FM221400 09006KT 6SM -RA BR OVC004=



000
FTUS42 KTAE 211900 AAA
TAFTLH
TAF AMD
KTLH 211902Z 2119/2218 07007KT 3SM BR VCSH OVC003
     FM220200 10004KT 6SM -RA BR OVC007
     FM220600 09005KT 2SM -RA BR OVC004=



000
FTUS42 KTAE 211700
TAFVLD
TAF
KVLD 211720Z 2118/2218 07006KT P6SM VCSH OVC005
     FM220100 08005KT 4SM -RA BR OVC004
     FM220500 08003KT 2SM -RA BR OVC003
     FM221400 09005KT 6SM -RA BR OVC003=



000
FTUS42 KTAE 211700
TAFDHN
TAF
KDHN 211720Z 2118/2218 06008KT 6SM BR OVC008
     FM220200 08005KT 6SM BR VCSH OVC007
     FM220700 09004KT 2SM BR VCSH OVC003
     FM221400 09006KT 6SM -RA BR OVC004=



000
FTUS42 KTAE 211700
TAFTLH
TAF
KTLH 211720Z 2118/2218 07007KT P6SM VCSH OVC006
     FM220200 10004KT 6SM -RA BR OVC007
     FM220600 09005KT 2SM -RA BR OVC004=



000
FTUS42 KTAE 211700
TAFABY
TAF
KABY 211720Z 2118/2218 06009KT 1 1/2SM BR OVC007
     FM211900 07007KT 3SM BR VCSH OVC004
     FM220200 08005KT 2SM -RA BR OVC003
     FM221400 07005KT 6SM -RA BR OVC004=



000
FTUS42 KTAE 211100
TAFVLD
TAF
KVLD 211135Z 2112/2212 04005KT P6SM VCSH OVC006
     FM211900 07006KT 6SM -RA OVC012
     FM220100 08005KT 4SM RA OVC007
     FM220500 08003KT 5SM -RA BR OVC004=



000
FTUS42 KTAE 211100
TAFTLH
TAF
KTLH 211135Z 2112/2212 06006KT P6SM OVC008
     FM211900 07005KT 6SM -RA OVC012
     FM220200 10004KT 4SM RA OVC007
     FM220600 09005KT 6SM -RA OVC004=



000
FTUS42 KTAE 211100
TAFDHN
TAF
KDHN 211135Z 2112/2212 06007KT P6SM OVC006
     FM211900 07005KT 6SM -RA OVC012
     FM220200 08005KT 6SM -RA OVC007
     FM220700 09004KT P6SM OVC005=



000
FTUS42 KTAE 211100
TAFABY
TAF
KABY 211135Z 2112/2212 03004KT P6SM OVC007
     FM211900 07007KT 6SM -RA OVC012
     FM220200 08005KT 4SM RA OVC007
     FM220700 07005KT 6SM -RA OVC004=



000
FTUS42 KTAE 210600 AAA
TAFABY
TAF AMD
KABY 210637Z 2107/2206 03004KT P6SM OVC007
     FM211900 07007KT 6SM -RA OVC012
     FM220200 08005KT 4SM RA OVC007=



000
FTUS42 KTAE 210600 AAA
TAFABY
TAF AMD
KABY 210637Z 2107/2206 03004KT P6SM OVC007
     FM211900 07007KT 6SM -RA OVC012
     FM220200 08005KT 4SM RA OVC007=



000
FTUS42 KTAE 210600 AAA
TAFVLD
TAF AMD
KVLD 210635Z 2107/2206 04005KT P6SM VCSH OVC006
     FM211900 07006KT 6SM -RA OVC012
     FM220100 08005KT 4SM RA OVC007=



000
FTUS42 KTAE 210600 AAA
TAFVLD
TAF AMD
KVLD 210635Z 2107/2206 04005KT P6SM VCSH OVC006
     FM211900 07006KT 6SM -RA OVC012
     FM220100 08005KT 4SM RA OVC007=



000
FTUS42 KTAE 210500
TAFABY
TAF
KABY 210540Z 2106/2206 03004KT P6SM OVC040
     FM210800 05006KT P6SM OVC008
     FM211900 07007KT 6SM -RA OVC012
     FM220200 08005KT 4SM RA OVC007=



000
FTUS42 KTAE 210500
TAFDHN
TAF
KDHN 210540Z 2106/2206 03006KT P6SM SCT007 OVC035
     FM210800 06007KT P6SM OVC006
     FM211900 07005KT 6SM -RA OVC012
     FM220200 08005KT 6SM -RA OVC007=



000
FTUS42 KTAE 210500
TAFVLD
TAF
KVLD 210540Z 2106/2206 04005KT P6SM OVC050
     FM210800 05006KT P6SM VCSH OVC006
     FM211900 07006KT 6SM -RA OVC012
     FM220100 08005KT 4SM RA OVC007=



000
FTUS42 KTAE 210500
TAFTLH
TAF
KTLH 210540Z 2106/2206 05005KT P6SM SCT015 OVC035
     FM210800 06006KT P6SM OVC008
     FM211900 07005KT 6SM -RA OVC012
     FM220200 10004KT 4SM RA OVC007=



000
FTUS42 KTAE 210300 AAC
TAFDHN
TAF AMD
KDHN 210302Z 2103/2124 03006KT P6SM OVC008
     FM211000 06007KT P6SM OVC005
     FM211800 07005KT 6SM -RA OVC010=



000
FTUS42 KTAE 210100 AAB
TAFDHN
TAF AMD
KDHN 210103Z 2101/2124 03006KT P6SM BKN010 OVC030
     FM211000 06007KT P6SM OVC005
     FM211800 07005KT 6SM -RA OVC010=



000
FTUS42 KTAE 210100 AAB
TAFDHN
TAF AMD
KDHN 210103Z 2101/2124 03006KT P6SM BKN010 OVC030
     FM211000 06007KT P6SM OVC005
     FM211800 07005KT 6SM -RA OVC010=



000
FTUS42 KTAE 210000 AAA
TAFDHN
TAF AMD
KDHN 210004Z 2100/2124 03006KT P6SM SCT015 OVC030
     FM210300 03006KT P6SM BKN010 OVC015
     FM211000 06007KT P6SM OVC005
     FM211800 07005KT 6SM -RA OVC010=



000
FTUS42 KTAE 202300
TAFDHN
TAF
KDHN 202332Z 2100/2124 03006KT P6SM BKN010 OVC015
     FM211000 06007KT P6SM OVC005
     FM211800 07005KT 6SM -RA OVC010=



000
FTUS42 KTAE 202300
TAFVLD
TAF
KVLD 202332Z 2100/2124 03005KT P6SM OVC050
     FM210600 04005KT P6SM OVC008
     FM211000 05006KT 3SM BR OVC004
     FM211400 07006KT 5SM -RA OVC010
     FM211800 08006KT 6SM -RA OVC020=



000
FTUS42 KTAE 202300
TAFABY
TAF
KABY 202332Z 2100/2124 03004KT P6SM OVC040
     FM210800 05006KT P6SM OVC005
     FM211500 07007KT P6SM OVC020
     FM211800 07007KT 6SM -RA OVC020=



000
FTUS42 KTAE 202300
TAFTLH
TAF
KTLH 202332Z 2100/2124 05004KT P6SM OVC050
     FM210600 05005KT P6SM BKN015 OVC025
     FM210800 06006KT P6SM OVC008
     FM211500 08006KT P6SM OVC010
     FM211800 07005KT 6SM -RA OVC020=



000
FTUS42 KTAE 202000 AAA
TAFDHN
TAF AMD
KDHN 202014Z 2020/2118 03005KT P6SM SCT015 OVC100
      TEMPO 2020/2022 OVC015
     FM210400 04004KT P6SM OVC020
     FM211000 05007KT P6SM OVC008=



000
FTUS42 KTAE 201700
TAFTLH
TAF
KTLH 201720Z 2018/2118 03005KT P6SM OVC080
     FM210300 05007KT P6SM OVC025
     FM210800 07005KT P6SM OVC008=



000
FTUS42 KTAE 201700
TAFABY
TAF
KABY 201720Z 2018/2118 02003KT P6SM SCT008 SCT020 OVC070
      TEMPO 2018/2022 BKN008
     FM210100 05005KT P6SM OVC020
     FM210800 05007KT P6SM OVC008=



000
FTUS42 KTAE 201700
TAFVLD
TAF
KVLD 201720Z 2018/2118 06005KT P6SM OVC090
     FM210100 05005KT P6SM OVC020
     FM210700 06007KT P6SM OVC008=



000
FTUS42 KTAE 201700
TAFDHN
TAF
KDHN 201720Z 2018/2118 03005KT P6SM SCT006 BKN015 OVC045
      TEMPO 2018/2022 BKN006
     FM210400 04004KT P6SM OVC020
     FM211000 05007KT P6SM OVC008=



000
FTUS42 KTAE 201100
TAFABY
TAF
KABY 201132Z 2012/2112 05005KT 6SM -RA OVC025
     FM201700 04003KT P6SM BKN040
     FM210100 05005KT P6SM OVC020
     FM210800 05007KT P6SM OVC008=



000
FTUS42 KTAE 201100
TAFTLH
TAF
KTLH 201132Z 2012/2112 04004KT P6SM BKN050 OVC100
     FM210300 05007KT P6SM OVC025
     FM210800 07005KT P6SM OVC008=



000
FTUS42 KTAE 201100
TAFDHN
TAF
KDHN 201132Z 2012/2112 05007KT 6SM -RA SCT015 BKN025 OVC050
     FM201700 04006KT P6SM SCT025 OVC070
     FM210400 04004KT P6SM OVC020
     FM211000 05007KT P6SM OVC008=



000
FTUS42 KTAE 201100
TAFVLD
TAF
KVLD 201132Z 2012/2112 04003KT P6SM BKN050 OVC100
     FM210100 05005KT P6SM OVC020
     FM210700 06007KT P6SM OVC008=



000
FTUS42 KTAE 200500
TAFDHN
TAF
KDHN 200539Z 2006/2106 35005KT 6SM -RA BKN025 OVC050
      TEMPO 2008/2012 BKN008
     FM201200 05007KT P6SM OVC008
     FM201600 04006KT P6SM BKN025 OVC070
     FM210100 04004KT P6SM OVC020=



000
FTUS42 KTAE 200500
TAFTLH
TAF
KTLH 200539Z 2006/2106 02004KT P6SM -RA BKN060 OVC100
     FM201100 04004KT P6SM BKN040 OVC070
     FM210100 05007KT P6SM OVC025=



000
FTUS42 KTAE 200500
TAFVLD
TAF
KVLD 200539Z 2006/2106 00000KT P6SM OVC050
     FM201100 04003KT P6SM BKN050 OVC100
     FM210100 05005KT P6SM OVC020=



000
FTUS42 KTAE 200500
TAFABY
TAF
KABY 200539Z 2006/2106 01004KT P6SM -RA OVC070
     FM201100 05005KT 6SM -RA OVC025
     FM201700 04003KT P6SM BKN040
     FM210100 05005KT P6SM OVC020=



000
FTUS42 KTAE 192300
TAFDHN
TAF
KDHN 192332Z 2000/2024 VRB04KT 6SM -RA BKN040 OVC100
     FM200900 04005KT 5SM -RA BR BKN020 OVC030
     FM201400 04006KT P6SM BKN050 OVC100=



000
FTUS42 KTAE 192300
TAFTLH
TAF
KTLH 192332Z 2000/2024 VRB03KT P6SM VCSH OVC100
     FM200900 06004KT P6SM BKN050 OVC080=



000
FTUS42 KTAE 192300
TAFABY
TAF
KABY 192332Z 2000/2024 VRB03KT P6SM OVC100
     FM200500 03003KT 6SM -RA BKN040 OVC100
     FM201300 04005KT P6SM BKN050 OVC100=



000
FTUS42 KTAE 192300
TAFVLD
TAF
KVLD 192332Z 2000/2024 00000KT P6SM BKN050 OVC100
     FM200900 05004KT P6SM OVC100=



000
FTUS42 KTAE 192000 AAA
TAFTLH
TAF AMD
KTLH 192015Z 1920/2018 07003KT P6SM -RA SCT080 BKN110 BKN200
     FM192200 08003KT P6SM VCSH OVC050
     FM200300 06003KT P6SM BKN050=



000
FTUS42 KTAE 191700
TAFDHN
TAF
KDHN 191725Z 1918/2018 35004KT P6SM SCT050 OVC150
     FM200200 08003KT P6SM -RA OVC050
     FM201200 05005KT P6SM BKN025=



000
FTUS42 KTAE 191700
TAFVLD
TAF
KVLD 191725Z 1918/2018 08006KT P6SM BKN150
     FM200500 00000KT P6SM BKN050 OVC120
     FM201200 06004KT P6SM OVC050=



000
FTUS42 KTAE 191700
TAFABY
TAF
KABY 191725Z 1918/2018 06004KT P6SM SCT050 OVC150
     FM200600 08003KT P6SM -RA BKN050 OVC120
     FM201200 06005KT P6SM OVC050=



000
FTUS42 KTAE 191700
TAFTLH
TAF
KTLH 191725Z 1918/2018 03006KT P6SM FEW060 BKN250
     FM191900 03007KT 5SM -RA OVC040
     FM192200 08003KT P6SM VCSH OVC050
     FM200300 06003KT P6SM BKN050=



000
FTUS42 KTAE 191100
TAFTLH
TAF
KTLH 191124Z 1912/2012 35003KT P6SM BKN250
     FM191500 04005KT P6SM BKN050 OVC100
     FM191900 03007KT 5SM -RA OVC040
     FM200200 08003KT P6SM VCSH SCT050 OVC120=



000
FTUS42 KTAE 191100
TAFVLD
TAF
KVLD 191124Z 1912/2012 00000KT P6SM BKN250
     FM191600 04005KT P6SM BKN050 OVC100
     FM192000 02004KT 5SM -RA OVC040
     FM200500 00000KT P6SM SCT050 OVC120=



000
FTUS42 KTAE 191100
TAFABY
TAF
KABY 191124Z 1912/2012 36003KT P6SM BKN035
     FM191500 01004KT P6SM BKN030 OVC100
     FM191800 32005KT 5SM -RA OVC040
     FM200200 08003KT P6SM VCSH SCT050 OVC120=



000
FTUS42 KTAE 191100
TAFDHN
TAF
KDHN 191124Z 1912/2012 02005KT P6SM SCT045 OVC060
     FM191500 04004KT 5SM -RA BKN040 OVC100
     FM200200 08003KT P6SM VCSH OVC050=



    US Dept of Commerce
    National Oceanic and Atmospheric Administration
    National Weather Service
    1325 East West Highway
    Silver Spring, MD 20910
    Page Author: NWS Internet Services Team
Disclaimer
Information Quality
Credits
Glossary
Privacy Policy
Freedom of Information Act (FOIA)
About Us
Career Opportunities